Time;durP1;ratioP1;P1;durP2;ratioP2;P2;SDS_P1;SDS_P2;PMS_P1;PMS_P2;Temp;Humidity;BMP_temperature;BMP_pressure;BME280_temperature;BME280_humidity;BME280_pressure;Samples;Min_cycle;Max_cycle;Signal;HPM_P1;HPM_P2
2022/06/10 00:00:48;;;;;;;3.43;3.13;;;;;;;12.99;100.00;97388.72;4852308;29;20221;-55
2022/06/10 00:03:17;;;;;;;3.30;3.10;;;;;;;12.94;100.00;97399.09;4855178;29;20238;-57
2022/06/10 00:05:48;;;;;;;6.30;3.13;;;;;;;12.95;100.00;97399.94;4829078;29;20828;-56
2022/06/10 00:08:18;;;;;;;3.20;2.97;;;;;;;12.91;100.00;97393.38;4857183;29;20245;-55
2022/06/10 00:10:49;;;;;;;3.77;3.43;;;;;;;12.77;100.00;97389.78;4852625;29;20241;-58
2022/06/10 00:13:18;;;;;;;3.83;3.53;;;;;;;12.65;100.00;97386.84;4814551;29;20256;-54
2022/06/10 00:15:48;;;;;;;3.33;3.00;;;;;;;12.72;100.00;97393.84;4852412;29;20447;-51
2022/06/10 00:18:17;;;;;;;3.43;3.13;;;;;;;12.62;100.00;97388.03;4847840;29;20308;-57
2022/06/10 00:20:46;;;;;;;4.77;3.40;;;;;;;12.62;100.00;97389.88;4829771;29;20414;-58
2022/06/10 00:23:15;;;;;;;3.67;3.37;;;;;;;12.49;100.00;97398.56;4859379;29;20340;-56
2022/06/10 00:25:43;;;;;;;3.30;3.00;;;;;;;12.39;100.00;97399.69;4852584;29;20205;-54
2022/06/10 00:28:11;;;;;;;3.23;3.00;;;;;;;12.28;100.00;97394.88;4808223;29;20382;-58
2022/06/10 00:30:40;;;;;;;3.07;2.80;;;;;;;12.23;100.00;97398.13;4854263;29;20241;-53
2022/06/10 00:33:10;;;;;;;4.00;3.70;;;;;;;12.22;100.00;97400.94;4853516;29;20530;-55
2022/06/10 00:35:39;;;;;;;4.83;2.90;;;;;;;11.96;100.00;97412.94;4855951;29;20214;-54
2022/06/10 00:38:08;;;;;;;3.53;3.33;;;;;;;11.90;100.00;97401.22;4830691;29;20348;-58
2022/06/10 00:40:39;;;;;;;3.10;2.90;;;;;;;12.09;100.00;97413.09;4856718;29;20230;-57
2022/06/10 00:43:10;;;;;;;3.10;2.97;;;;;;;11.98;100.00;97409.06;4807384;29;20233;-58
2022/06/10 00:45:53;;;;;;;3.33;3.03;;;;;;;11.92;100.00;97412.47;4853859;29;20769;-54
2022/06/10 00:48:33;;;;;;;3.20;3.00;;;;;;;11.92;100.00;97417.78;4854742;29;20248;-58
2022/06/10 00:51:12;;;;;;;3.87;3.27;;;;;;;12.00;100.00;97412.38;4855854;29;20253;-58
2022/06/10 00:53:40;;;;;;;4.23;3.80;;;;;;;12.04;100.00;97418.16;4825555;29;20613;-55
2022/06/10 00:56:20;;;;;;;3.97;3.60;;;;;;;12.09;100.00;97412.25;4854654;29;20304;-58
2022/06/10 00:58:52;;;;;;;3.27;3.07;;;;;;;12.16;100.00;97421.13;4804620;29;20217;-57
2022/06/10 01:01:24;;;;;;;3.47;3.17;;;;;;;12.15;100.00;97417.66;4823164;29;20278;-54
2022/06/10 01:03:54;;;;;;;3.37;3.17;;;;;;;11.97;100.00;97415.38;4854641;29;20752;-57
2022/06/10 01:06:24;;;;;;;3.03;2.83;;;;;;;12.01;100.00;97418.53;4854506;29;20245;-57
2022/06/10 01:08:53;;;;;;;2.87;2.77;;;;;;;11.96;100.00;97424.34;4826324;29;20247;-57
2022/06/10 01:11:43;;;;;;;3.37;3.07;;;;;;;11.99;100.00;97425.81;4853779;29;20207;-55
2022/06/10 01:14:20;;;;;;;3.80;3.30;;;;;;;11.94;100.00;97428.22;4780622;29;20730;-58
2022/06/10 01:16:59;;;;;;;3.73;3.13;;;;;;;11.99;100.00;97429.28;4850007;29;20245;-57
2022/06/10 01:19:54;;;;;;;4.00;3.33;;;;;;;11.98;100.00;97438.25;4851691;29;20349;-53
2022/06/10 01:22:44;;;;;;;3.07;2.87;;;;;;;11.95;100.00;97441.28;4839411;29;20475;-52
2022/06/10 01:25:40;;;;;;;3.10;2.90;;;;;;;11.98;100.00;97443.56;4827040;29;20245;-58
2022/06/10 01:28:15;;;;;;;3.13;2.93;;;;;;;12.05;100.00;97449.00;4833455;29;20348;-57
2022/06/10 01:31:04;;;;;;;3.20;3.00;;;;;;;12.20;100.00;97453.44;4807675;29;20315;-57
2022/06/10 01:33:53;;;;;;;3.50;3.20;;;;;;;12.07;100.00;97454.94;4851687;29;20261;-53
2022/06/10 01:36:25;;;;;;;3.87;3.50;;;;;;;12.06;100.00;97455.97;4852052;29;20308;-56
2022/06/10 01:39:01;;;;;;;3.63;3.43;;;;;;;12.15;100.00;97451.38;4848635;29;20608;-58
2022/06/10 01:41:41;;;;;;;3.30;3.10;;;;;;;12.14;100.00;97458.50;4826216;29;20316;-54
2022/06/10 01:44:15;;;;;;;3.83;3.50;;;;;;;12.03;100.00;97456.34;4851352;29;20606;-56
2022/06/10 01:46:48;;;;;;;3.23;2.93;;;;;;;12.12;100.00;97457.88;4810970;29;20308;-58
2022/06/10 01:49:24;;;;;;;4.20;3.07;;;;;;;12.01;100.00;97451.19;4852310;29;20470;-57
2022/06/10 01:51:58;;;;;;;3.60;3.30;;;;;;;11.90;100.00;97464.94;4848981;29;20309;-54
2022/06/10 01:54:33;;;;;;;3.27;2.90;;;;;;;11.91;100.00;97468.41;4853347;29;20226;-57
2022/06/10 01:57:05;;;;;;;3.30;3.07;;;;;;;11.94;100.00;97460.09;4831078;29;20293;-58
2022/06/10 01:59:38;;;;;;;3.33;3.10;;;;;;;11.88;100.00;97461.63;4851353;29;20349;-54
2022/06/10 02:02:10;;;;;;;4.67;3.37;;;;;;;11.88;100.00;97470.41;4806367;29;20241;-57
2022/06/10 02:04:41;;;;;;;3.67;3.37;;;;;;;11.80;100.00;97472.38;4846744;29;20838;-54
2022/06/10 02:07:14;;;;;;;4.73;3.27;;;;;;;11.87;100.00;97465.31;4855702;29;20301;-58
2022/06/10 02:09:46;;;;;;;3.47;3.17;;;;;;;11.78;100.00;97472.53;4850007;29;20330;-58
2022/06/10 02:12:17;;;;;;;3.53;3.23;;;;;;;11.80;100.00;97472.38;4825357;29;20356;-57
2022/06/10 02:14:49;;;;;;;3.27;3.07;;;;;;;11.63;100.00;97463.78;4848245;29;20422;-56
2022/06/10 02:17:20;;;;;;;3.90;3.60;;;;;;;11.77;100.00;97476.19;4808998;29;20321;-55
2022/06/10 02:19:51;;;;;;;3.43;3.00;;;;;;;11.54;100.00;97468.34;4852537;29;20324;-57
2022/06/10 02:22:23;;;;;;;3.17;2.97;;;;;;;11.60;100.00;97477.41;4831782;29;20749;-58
2022/06/10 02:24:53;;;;;;;3.50;3.20;;;;;;;11.56;100.00;97480.44;4845893;29;20217;-57
2022/06/10 02:27:26;;;;;;;3.47;3.27;;;;;;;11.55;100.00;97485.91;4846358;29;20225;-54
2022/06/10 02:29:57;;;;;;;3.47;3.27;;;;;;;11.47;100.00;97493.97;4840195;29;20225;-54
2022/06/10 02:32:29;;;;;;;4.23;3.37;;;;;;;11.54;100.00;97489.56;4802219;29;20240;-54
2022/06/10 02:34:58;;;;;;;3.00;2.90;;;;;;;11.47;100.00;97492.13;4852613;29;20289;-52
2022/06/10 02:37:31;;;;;;;3.53;3.20;;;;;;;11.42;100.00;97498.00;4849617;29;20826;-57
2022/06/10 02:40:05;;;;;;;3.77;3.47;;;;;;;11.57;100.00;97500.66;4850986;29;20237;-54
2022/06/10 02:42:37;;;;;;;3.97;3.67;;;;;;;11.65;100.00;97499.72;4853869;29;20632;-55
2022/06/10 02:45:10;;;;;;;3.20;3.00;;;;;;;11.44;100.00;97497.78;4819767;29;20221;-53
2022/06/10 02:47:46;;;;;;;3.90;3.60;;;;;;;11.54;100.00;97500.19;4806047;29;20233;-56
2022/06/10 02:50:15;;;;;;;4.17;3.23;;;;;;;11.41;100.00;97504.31;4849735;29;20221;-51
2022/06/10 02:52:44;;;;;;;3.40;3.30;;;;;;;11.52;100.00;97510.16;4851824;29;20229;-58
2022/06/10 02:55:17;;;;;;;4.10;3.20;;;;;;;11.58;100.00;97512.06;4854137;29;20222;-53
2022/06/10 03:03:37;;;;;;;5.10;3.30;;;;;;;11.55;100.00;97513.28;4802590;29;20616;-54
2022/06/10 03:06:10;;;;;;;3.73;3.43;;;;;;;11.43;100.00;97518.22;4852657;29;20714;-52
2022/06/10 03:08:41;;;;;;;3.60;3.30;;;;;;;11.52;100.00;97521.59;4853191;29;20625;-57
2022/06/10 03:11:14;;;;;;;4.00;3.20;;;;;;;11.49;100.00;97527.25;4847648;29;20265;-54
2022/06/10 03:13:54;;;;;;;3.50;3.30;;;;;;;11.43;100.00;97535.94;4830052;29;20769;-52
2022/06/10 03:16:45;;;;;;;3.67;3.30;;;;;;;11.46;100.00;97535.56;4826287;29;20308;-57
2022/06/10 03:19:24;;;;;;;4.03;3.60;;;;;;;11.55;100.00;97538.97;4809649;29;20581;-55
2022/06/10 03:21:58;;;;;;;4.00;3.60;;;;;;;11.64;100.00;97540.53;4853484;29;20317;-53
2022/06/10 03:24:32;;;;;;;3.87;3.57;;;;;;;11.67;100.00;97540.16;4848498;29;20449;-51
2022/06/10 03:27:04;;;;;;;3.90;3.60;;;;;;;11.67;100.00;97542.03;4854657;29;20265;-53
2022/06/10 03:29:40;;;;;;;3.63;3.33;;;;;;;11.70;100.00;97560.22;4850425;29;20222;-56
2022/06/10 03:32:13;;;;;;;4.00;3.67;;;;;;;11.76;100.00;97551.53;4822378;29;20242;-56
2022/06/10 03:34:46;;;;;;;3.60;3.40;;;;;;;11.75;100.00;97565.81;4805322;29;20233;-57
2022/06/10 03:37:15;;;;;;;3.57;3.37;;;;;;;11.90;100.00;97568.47;4847587;29;20754;-53
2022/06/10 03:39:43;;;;;;;3.77;3.47;;;;;;;11.84;100.00;97569.22;4849492;29;20228;-58
2022/06/10 03:42:16;;;;;;;3.80;3.50;;;;;;;11.98;100.00;97580.84;4851806;29;20240;-53
2022/06/10 03:44:47;;;;;;;3.77;3.40;;;;;;;12.03;100.00;97581.16;4854496;29;20218;-56
2022/06/10 03:47:19;;;;;;;4.07;3.77;;;;;;;12.19;100.00;97574.81;4824711;29;20646;-54
2022/06/10 03:49:55;;;;;;;4.37;4.03;;;;;;;12.20;100.00;97588.91;4806012;29;20357;-56
2022/06/10 03:52:25;;;;;;;3.50;3.30;;;;;;;12.33;100.00;97589.09;4850898;29;20830;-57
2022/06/10 03:54:54;;;;;;;3.50;3.30;;;;;;;12.23;100.00;97588.53;4851715;29;20217;-54
2022/06/10 03:57:22;;;;;;;3.87;3.50;;;;;;;12.20;100.00;97594.22;4850681;29;20790;-57
2022/06/10 03:59:50;;;;;;;3.80;3.50;;;;;;;12.33;100.00;97597.06;4853750;29;20273;-56
2022/06/10 04:02:19;;;;;;;5.07;3.70;;;;;;;12.34;100.00;97598.72;4820179;29;20761;-56
2022/06/10 04:04:51;;;;;;;3.43;3.23;;;;;;;12.36;100.00;97598.53;4849335;29;20214;-56
2022/06/10 04:07:20;;;;;;;3.63;3.33;;;;;;;12.53;100.00;97601.81;4804952;29;20283;-54
2022/06/10 04:09:49;;;;;;;3.50;3.30;;;;;;;12.80;100.00;97599.47;4855023;29;20237;-54
2022/06/10 04:12:17;;;;;;;3.37;3.17;;;;;;;12.83;100.00;97593.75;4850131;29;20348;-49
2022/06/10 04:14:45;;;;;;;3.77;3.50;;;;;;;13.04;100.00;97595.59;4850760;29;20249;-58
2022/06/10 04:17:14;;;;;;;4.20;4.00;;;;;;;13.21;100.00;97592.69;4830599;29;20220;-48
2022/06/10 04:19:42;;;;;;;3.60;3.30;;;;;;;13.23;100.00;97599.47;4857484;29;20411;-59
2022/06/10 04:22:12;;;;;;;3.43;3.23;;;;;;;13.35;100.00;97601.59;4803324;29;20320;-53
2022/06/10 04:24:41;;;;;;;3.67;3.43;;;;;;;13.41;100.00;97598.19;4852718;29;20218;-58
2022/06/10 04:27:10;;;;;;;6.33;3.70;;;;;;;13.39;100.00;97602.88;4849547;29;20209;-52
2022/06/10 04:29:38;;;;;;;3.50;3.30;;;;;;;13.36;100.00;97600.59;4850977;29;20221;-59
2022/06/10 04:32:08;;;;;;;3.97;3.67;;;;;;;13.56;100.00;97604.28;4836455;29;20275;-55
2022/06/10 04:34:37;;;;;;;3.70;3.50;;;;;;;13.61;100.00;97601.03;4844677;29;20218;-57
2022/06/10 04:37:07;;;;;;;3.37;3.17;;;;;;;13.87;100.00;97597.75;4833219;29;20308;-55
2022/06/10 04:39:37;;;;;;;4.97;4.57;;;;;;;13.74;100.00;97603.81;4837961;29;20218;-57
2022/06/10 04:42:06;;;;;;;4.17;3.70;;;;;;;13.75;100.00;97601.97;4849663;29;20273;-55
2022/06/10 04:44:35;;;;;;;3.90;3.47;;;;;;;13.91;100.00;97611.50;4851394;29;21092;-56
2022/06/10 04:47:04;;;;;;;3.67;3.30;;;;;;;13.82;100.00;97618.00;4853709;29;20642;-54
2022/06/10 04:49:32;;;;;;;3.60;3.30;;;;;;;13.81;100.00;97616.34;4822356;29;20222;-58
2022/06/10 04:52:00;;;;;;;3.70;3.43;;;;;;;14.04;100.00;97616.91;4853130;29;20233;-55
2022/06/10 04:54:29;;;;;;;3.63;3.27;;;;;;;14.00;100.00;97628.97;4800033;29;20810;-55
2022/06/10 04:56:58;;;;;;;4.00;3.70;;;;;;;14.01;100.00;97627.94;4851360;29;20241;-56
2022/06/10 04:59:27;;;;;;;4.73;3.97;;;;;;;14.27;100.00;97625.66;4849711;29;20274;-55
2022/06/10 05:01:55;;;;;;;3.87;3.63;;;;;;;14.35;100.00;97625.50;4851699;29;20420;-58
2022/06/10 05:04:24;;;;;;;4.00;3.70;;;;;;;14.47;100.00;97628.41;4819459;29;20382;-59
2022/06/10 05:06:52;;;;;;;3.67;3.37;;;;;;;14.76;100.00;97630.00;4852133;29;20646;-58
2022/06/10 05:09:21;;;;;;;3.93;3.57;;;;;;;15.00;100.00;97635.84;4796891;29;21739;-54
2022/06/10 05:11:49;;;;;;;3.40;3.20;;;;;;;15.22;100.00;97632.97;4849510;29;20257;-59
2022/06/10 05:14:19;;;;;;;4.57;4.17;;;;;;;15.23;100.00;97637.28;4847846;29;20663;-54
2022/06/10 05:16:47;;;;;;;3.53;3.33;;;;;;;15.33;100.00;97640.38;4835623;29;20300;-54
2022/06/10 05:19:16;;;;;;;3.33;3.13;;;;;;;15.36;100.00;97641.03;4821643;29;20266;-56
2022/06/10 05:21:44;;;;;;;4.00;3.70;;;;;;;15.26;100.00;97636.88;4851715;29;20838;-56
2022/06/10 05:24:12;;;;;;;3.70;3.40;;;;;;;15.36;100.00;97639.16;4849363;29;20217;-55
2022/06/10 05:26:41;;;;;;;3.70;3.43;;;;;;;15.49;100.00;97635.69;4805385;29;20217;-57
2022/06/10 05:29:09;;;;;;;3.47;3.07;;;;;;;15.42;100.00;97635.69;4850405;29;20330;-56
2022/06/10 05:31:39;;;;;;;3.57;3.37;;;;;;;15.55;100.00;97642.06;4850543;29;20376;-57
2022/06/10 05:36:53;;;;;;;3.63;3.27;;;;;;;15.66;100.00;97644.13;4850044;29;20572;-59
2022/06/10 05:39:21;;;;;;;3.37;3.17;;;;;;;15.67;100.00;97642.25;4849511;29;20214;-58
2022/06/10 05:42:09;;;;;;;3.73;3.53;;;;;;;15.52;100.00;97651.31;4799225;29;20244;-54
2022/06/10 05:44:40;;;;;;;3.37;3.17;;;;;;;15.45;100.00;97647.81;4849369;29;20207;-53
2022/06/10 05:47:12;;;;;;;3.93;3.10;;;;;;;15.77;100.00;97654.19;4845729;29;20277;-52
2022/06/10 05:49:42;;;;;;;3.63;3.10;;;;;;;15.80;100.00;97654.81;4824328;29;20250;-52
2022/06/10 05:52:12;;;;;;;3.70;3.07;;;;;;;15.87;100.00;97648.44;4851224;29;20289;-55
2022/06/10 05:54:42;;;;;;;2.87;2.73;;;;;;;15.90;100.00;97650.72;4850843;29;20214;-54
2022/06/10 05:57:11;;;;;;;3.40;3.10;;;;;;;15.80;100.00;97647.63;4812665;29;20237;-54
2022/06/10 05:59:39;;;;;;;3.37;3.07;;;;;;;15.94;100.00;97642.28;4847413;29;20205;-58
2022/06/10 06:02:11;;;;;;;3.63;3.33;;;;;;;16.10;100.00;97655.25;4844713;29;20241;-56
2022/06/10 06:04:41;;;;;;;3.80;3.50;;;;;;;15.99;100.00;97653.19;4840880;29;20223;-58
2022/06/10 06:07:10;;;;;;;3.57;3.37;;;;;;;15.75;100.00;97656.25;4839297;29;20330;-56
2022/06/10 06:09:38;;;;;;;3.10;2.90;;;;;;;15.85;100.00;97655.84;4847085;29;20214;-51
2022/06/10 06:12:07;;;;;;;3.53;3.33;;;;;;;15.89;100.00;97653.59;4851862;29;20703;-58
2022/06/10 06:14:36;;;;;;;3.17;2.97;;;;;;;15.67;100.00;97653.78;4801822;29;20890;-54
2022/06/10 06:17:05;;;;;;;3.40;3.10;;;;;;;15.60;100.00;97645.75;4852373;29;20839;-57
2022/06/10 06:19:35;;;;;;;3.37;3.17;;;;;;;15.95;100.00;97659.97;4849704;29;20532;-55
2022/06/10 06:22:04;;;;;;;4.23;3.83;;;;;;;15.86;100.00;97657.47;4819871;29;20998;-58
2022/06/10 06:24:37;;;;;;;3.07;2.87;;;;;;;16.19;100.00;97655.81;4853758;29;20796;-54
2022/06/10 06:27:06;;;;;;;3.47;3.27;;;;;;;16.38;100.00;97650.66;4851555;29;20918;-58
2022/06/10 06:29:35;;;;;;;3.93;3.57;;;;;;;16.52;100.00;97656.78;4814410;29;21201;-56
2022/06/10 06:32:04;;;;;;;3.73;3.43;;;;;;;16.71;100.00;97661.22;4851791;29;20352;-56
2022/06/10 06:34:32;;;;;;;4.20;3.90;;;;;;;16.66;100.00;97653.03;4854894;29;20323;-58
2022/06/10 06:37:02;;;;;;;4.00;3.60;;;;;;;16.75;100.00;97657.09;4830120;29;20614;-59
2022/06/10 06:39:31;;;;;;;3.27;3.07;;;;;;;16.91;100.00;97653.13;4857027;29;20213;-59
2022/06/10 06:41:59;;;;;;;3.30;3.00;;;;;;;17.12;100.00;97651.19;4855373;29;20654;-58
2022/06/10 06:44:28;;;;;;;3.80;2.90;;;;;;;17.12;100.00;97656.56;4808405;29;20221;-55
2022/06/10 06:46:56;;;;;;;3.13;2.93;;;;;;;17.14;100.00;97662.50;4851219;29;20906;-56
2022/06/10 06:49:26;;;;;;;5.33;3.63;;;;;;;17.40;100.00;97662.56;4855467;29;20255;-56
2022/06/10 06:51:55;;;;;;;4.60;3.50;;;;;;;17.50;100.00;97654.84;4833336;29;20468;-51
2022/06/10 06:54:25;;;;;;;2.97;2.77;;;;;;;17.70;100.00;97652.03;4857454;29;20213;-56
2022/06/10 06:56:53;;;;;;;3.37;3.10;;;;;;;17.76;100.00;97655.69;4852591;29;20210;-55
2022/06/10 06:59:22;;;;;;;3.20;2.90;;;;;;;18.03;100.00;97656.31;4815580;29;20738;-58
2022/06/10 07:01:50;;;;;;;3.23;2.93;;;;;;;18.07;100.00;97659.38;4858178;29;20237;-56
2022/06/10 07:04:18;;;;;;;3.07;2.87;;;;;;;18.19;100.00;97665.66;4858721;29;20233;-57
2022/06/10 07:06:47;;;;;;;3.47;3.27;;;;;;;17.95;100.00;97661.94;4843866;29;20406;-54
2022/06/10 07:09:15;;;;;;;2.57;2.37;;;;;;;17.97;100.00;97661.69;4848581;29;20224;-57
2022/06/10 07:11:45;;;;;;;3.10;2.90;;;;;;;17.99;100.00;97668.50;4858246;29;20788;-55
2022/06/10 07:14:14;;;;;;;3.60;3.20;;;;;;;18.36;100.00;97663.22;4856072;29;20301;-56
2022/06/10 07:16:42;;;;;;;3.07;2.87;;;;;;;18.42;100.00;97672.25;4807912;29;20297;-55
2022/06/10 07:19:12;;;;;;;2.70;2.50;;;;;;;18.51;100.00;97670.06;4856569;29;20982;-56
2022/06/10 07:21:40;;;;;;;2.70;2.50;;;;;;;18.57;100.00;97673.72;4852972;29;20237;-54
2022/06/10 07:24:09;;;;;;;2.80;2.33;;;;;;;18.70;100.00;97673.56;4840032;29;20635;-58
2022/06/10 07:26:38;;;;;;;2.73;2.53;;;;;;;19.04;100.00;97679.38;4857793;29;20221;-55
2022/06/10 07:29:10;;;;;;;2.70;2.60;;;;;;;19.13;100.00;97668.31;4849599;29;20990;-53
2022/06/10 07:31:41;;;;;;;2.87;2.67;;;;;;;19.25;100.00;97674.56;4814408;29;20226;-54
2022/06/10 07:34:10;;;;;;;3.00;2.80;;;;;;;19.53;100.00;97673.94;4853882;29;20817;-55
2022/06/10 07:36:39;;;;;;;2.40;2.30;;;;;;;19.87;100.00;97662.66;4856162;29;20225;-54
2022/06/10 07:39:07;;;;;;;2.90;2.70;;;;;;;20.37;100.00;97671.38;4831284;29;20230;-56
2022/06/10 07:44:23;;;;;;;2.30;2.20;;;;;;;20.24;97.80;97675.91;4856494;29;20237;-56
2022/06/10 07:46:53;;;;;;;3.00;2.80;;;;;;;20.66;95.31;97663.38;4814231;29;20218;-56
2022/06/10 07:49:29;;;;;;;2.80;2.60;;;;;;;20.82;100.00;97669.88;4853486;29;20213;-56
2022/06/10 07:51:58;;;;;;;2.83;2.50;;;;;;;21.34;91.38;97671.69;4849191;29;20571;-56
2022/06/10 07:54:26;;;;;;;3.80;2.73;;;;;;;20.87;94.10;97675.41;4832661;29;20325;-53
2022/06/10 07:56:55;;;;;;;5.10;2.43;;;;;;;20.83;94.06;97676.91;4856048;29;20341;-56
2022/06/10 07:59:27;;;;;;;3.20;2.90;;;;;;;20.21;95.55;97675.59;4856700;29;20209;-51
2022/06/10 08:01:55;;;;;;;2.47;2.23;;;;;;;19.42;100.00;97669.38;4856694;29;20754;-55
2022/06/10 08:04:23;;;;;;;2.60;2.40;;;;;;;19.30;100.00;97676.56;4815696;29;20248;-52
2022/06/10 08:06:53;;;;;;;2.60;2.40;;;;;;;19.50;100.00;97674.41;4855838;29;20292;-55
2022/06/10 08:09:22;;;;;;;2.47;2.37;;;;;;;19.18;100.00;97671.16;4833630;29;20229;-52
2022/06/10 08:11:51;;;;;;;2.50;2.40;;;;;;;18.82;100.00;97681.69;4853659;29;20817;-57
2022/06/10 08:14:19;;;;;;;2.57;2.33;;;;;;;18.62;100.00;97676.56;4854455;29;20225;-53
2022/06/10 08:16:53;;;;;;;2.60;2.50;;;;;;;18.61;100.00;97677.59;4854900;29;20623;-53
2022/06/10 08:19:22;;;;;;;2.60;2.40;;;;;;;18.52;100.00;97677.91;4787998;29;20632;-54
2022/06/10 08:24:36;;;;;;;5.63;2.60;;;;;;;18.79;100.00;97685.66;4852935;29;20241;-54
2022/06/10 08:27:05;;;;;;;3.10;2.50;;;;;;;18.93;100.00;97672.06;4831474;29;20490;-57
2022/06/10 08:29:34;;;;;;;3.37;2.70;;;;;;;18.99;100.00;97675.75;4855129;29;21071;-56
2022/06/10 08:32:04;;;;;;;2.70;2.33;;;;;;;19.20;100.00;97675.25;4854935;29;20233;-55
2022/06/10 08:34:32;;;;;;;4.20;3.90;;;;;;;19.40;100.00;97673.31;4812690;29;20229;-57
2022/06/10 08:37:01;;;;;;;4.43;2.40;;;;;;;19.66;100.00;97672.94;4853204;29;20522;-55
2022/06/10 08:39:30;;;;;;;2.07;1.97;;;;;;;19.65;89.86;97684.72;4855211;29;20229;-57
2022/06/10 08:42:14;;;;;;;2.20;2.10;;;;;;;19.72;85.88;97686.50;4828696;29;20305;-52
2022/06/10 08:44:48;;;;;;;2.00;1.90;;;;;;;20.01;84.12;97681.31;4852863;29;20309;-52
2022/06/10 08:47:33;;;;;;;2.60;1.73;;;;;;;20.01;81.57;97681.31;4856246;29;20304;-55
2022/06/10 08:50:11;;;;;;;1.93;1.83;;;;;;;20.16;80.09;97688.91;4810877;29;20963;-56
2022/06/10 08:52:45;;;;;;;2.07;2.00;;;;;;;20.47;86.14;97697.69;4851721;29;20328;-55
2022/06/10 08:55:24;;;;;;;3.13;2.17;;;;;;;20.65;82.96;97688.66;4833625;29;20913;-56
2022/06/10 08:57:55;;;;;;;3.23;2.30;;;;;;;20.80;81.38;97691.69;4846797;29;20220;-53
2022/06/10 09:00:25;;;;;;;2.17;2.03;;;;;;;21.23;69.46;97688.72;4855951;29;20225;-54
2022/06/10 09:02:59;;;;;;;2.13;2.03;;;;;;;21.76;69.88;97683.22;4853763;29;20794;-52
2022/06/10 09:05:30;;;;;;;2.10;2.00;;;;;;;22.02;64.69;97680.94;4856333;29;20308;-56
2022/06/10 09:08:00;;;;;;;4.73;2.13;;;;;;;21.43;64.62;97688.28;4806203;29;20282;-54
2022/06/10 09:10:32;;;;;;;2.80;2.60;;;;;;;21.65;65.83;97685.75;4829678;29;20218;-56
2022/06/10 09:13:11;;;;;;;2.93;1.87;;;;;;;21.80;68.75;97692.47;4847285;29;20290;-56
2022/06/10 09:15:55;;;;;;;2.17;2.07;;;;;;;21.68;68.96;97687.16;4856412;29;20221;-54
2022/06/10 09:18:31;;;;;;;2.50;2.30;;;;;;;21.37;73.54;97690.06;4855397;29;20275;-60
2022/06/10 09:21:05;;;;;;;2.30;2.20;;;;;;;20.78;71.94;97696.47;4808387;29;20910;-57
2022/06/10 09:23:38;;;;;;;4.37;2.70;;;;;;;21.00;79.67;97695.03;4856147;29;20267;-59
2022/06/10 09:26:10;;;;;;;2.33;2.23;;;;;;;21.25;76.18;97694.69;4827308;29;20309;-55
2022/06/10 09:28:42;;;;;;;1.77;1.67;;;;;;;21.51;68.22;97697.88;4849436;29;20503;-56
2022/06/10 09:31:21;;;;;;;2.17;2.03;;;;;;;21.55;59.90;97702.50;4852558;29;20242;-57
2022/06/10 09:33:57;;;;;;;2.07;1.97;;;;;;;21.88;63.18;97702.84;4853361;29;20309;-56
2022/06/10 09:36:29;;;;;;;1.93;1.83;;;;;;;21.87;52.18;97693.13;4854816;29;20325;-57
2022/06/10 09:39:03;;;;;;;2.30;1.63;;;;;;;22.29;56.62;97688.34;4806003;29;20261;-60
2022/06/10 09:41:36;;;;;;;2.40;1.50;;;;;;;22.82;58.43;97692.31;4832331;29;20317;-58
2022/06/10 09:44:13;;;;;;;2.50;2.30;;;;;;;22.90;56.94;97692.94;4849724;29;20473;-54
2022/06/10 09:46:50;;;;;;;2.30;1.70;;;;;;;22.89;52.99;97686.75;4858476;29;20308;-54
2022/06/10 09:49:35;;;;;;;2.00;1.90;;;;;;;23.14;49.55;97690.81;4856496;29;20574;-58
2022/06/10 09:52:10;;;;;;;1.70;1.60;;;;;;;22.94;50.80;97689.50;4856630;29;20559;-53
2022/06/10 09:54:49;;;;;;;2.37;1.90;;;;;;;22.94;50.29;97694.09;4810313;29;20216;-55
2022/06/10 09:57:37;;;;;;;2.03;1.73;;;;;;;23.33;50.54;97693.19;4830647;29;20354;-57
2022/06/10 10:00:11;;;;;;;1.90;1.80;;;;;;;23.44;50.91;97692.22;4856729;29;20301;-52
2022/06/10 10:02:47;;;;;;;2.07;1.90;;;;;;;22.89;54.50;97692.16;4857661;29;20915;-54
2022/06/10 10:05:24;;;;;;;1.90;1.80;;;;;;;23.26;53.47;97688.81;4855594;29;20229;-57
2022/06/10 10:07:58;;;;;;;1.80;1.80;;;;;;;23.09;51.93;97688.03;4810809;29;20627;-53
2022/06/10 10:10:28;;;;;;;2.47;1.90;;;;;;;23.31;51.79;97689.94;4856652;29;20248;-56
2022/06/10 10:13:16;;;;;;;1.70;1.60;;;;;;;23.80;51.80;97680.91;4830508;29;20516;-54
2022/06/10 10:15:50;;;;;;;1.80;1.70;;;;;;;23.33;52.93;97677.81;4853479;29;20683;-54
2022/06/10 10:18:32;;;;;;;1.70;1.60;;;;;;;23.64;53.07;97683.47;4856991;29;20202;-55
2022/06/10 10:21:14;;;;;;;2.43;1.67;;;;;;;22.51;54.27;97680.31;4853952;29;20245;-56
2022/06/10 10:23:54;;;;;;;2.40;2.00;;;;;;;22.26;55.16;97679.69;4838946;29;20804;-54
2022/06/10 10:26:25;;;;;;;1.83;1.73;;;;;;;22.10;60.64;97689.44;4857566;29;20305;-56
2022/06/10 10:29:04;;;;;;;2.07;1.83;;;;;;;21.67;57.36;97688.22;4832884;29;20225;-52
2022/06/10 10:31:36;;;;;;;2.47;1.60;;;;;;;21.58;59.40;97690.44;4858646;29;20206;-58
2022/06/10 10:34:06;;;;;;;2.13;1.93;;;;;;;21.18;59.97;97694.84;4854961;29;20560;-56
2022/06/10 10:36:49;;;;;;;3.83;1.83;;;;;;;21.78;55.32;97689.16;4858018;29;20249;-54
2022/06/10 10:39:27;;;;;;;2.73;2.37;;;;;;;22.32;57.32;97682.44;4857700;29;20564;-57
2022/06/10 10:41:58;;;;;;;1.60;1.60;;;;;;;22.99;49.80;97677.94;4785611;29;21251;-54
2022/06/10 10:44:30;;;;;;;2.63;2.20;;;;;;;23.66;55.96;97675.91;4856655;29;20329;-56
2022/06/10 10:47:02;;;;;;;1.90;1.80;;;;;;;23.45;50.23;97682.22;4853167;29;20808;-57
2022/06/10 10:49:33;;;;;;;2.57;2.30;;;;;;;22.87;50.00;97685.34;4858800;29;20913;-54
2022/06/10 10:52:08;;;;;;;1.90;1.80;;;;;;;22.98;49.21;97684.41;4855446;29;20856;-55
2022/06/10 10:54:37;;;;;;;2.40;2.20;;;;;;;22.96;52.87;97683.84;4855661;29;20750;-55
2022/06/10 10:57:16;;;;;;;3.20;2.57;;;;;;;22.62;52.58;97682.06;4809439;29;20225;-58
2022/06/10 10:59:44;;;;;;;1.77;1.67;;;;;;;22.39;51.69;97675.81;4837483;29;20674;-55
2022/06/10 11:02:32;;;;;;;1.77;1.67;;;;;;;22.29;55.73;97681.06;4857517;29;20761;-58
2022/06/10 11:05:25;;;;;;;1.70;1.60;;;;;;;21.79;58.30;97688.94;4852696;29;20317;-57
2022/06/10 11:08:14;;;;;;;1.97;1.50;;;;;;;21.64;57.20;97692.19;4837537;29;20241;-50
2022/06/10 11:10:56;;;;;;;1.83;1.73;;;;;;;21.81;58.42;97688.72;4834524;29;20830;-55
2022/06/10 11:13:34;;;;;;;2.70;2.07;;;;;;;21.89;60.77;97691.00;4834265;29;20240;-59
2022/06/10 11:16:35;;;;;;;1.70;1.60;;;;;;;22.37;62.13;97685.22;4850228;29;20221;-58
2022/06/10 11:19:11;;;;;;;2.00;1.80;;;;;;;23.02;53.56;97690.13;4855433;29;20365;-52
2022/06/10 11:21:52;;;;;;;1.73;1.67;;;;;;;23.49;59.32;97672.53;4857979;29;20213;-56
2022/06/10 11:24:25;;;;;;;1.60;1.50;;;;;;;23.81;51.53;97685.25;4856505;29;20245;-53
2022/06/10 11:26:55;;;;;;;1.93;1.73;;;;;;;23.85;49.91;97681.75;4806920;29;20309;-56
2022/06/10 11:29:23;;;;;;;2.10;1.90;;;;;;;23.42;50.32;97675.44;4834108;29;20693;-57
2022/06/10 11:31:55;;;;;;;3.83;2.90;;;;;;;23.70;49.64;97677.06;4847927;29;20377;-56
2022/06/10 11:34:33;;;;;;;2.97;1.77;;;;;;;23.76;48.20;97669.78;4858192;29;20239;-56
2022/06/10 11:37:20;;;;;;;2.53;2.17;;;;;;;23.44;48.30;97667.06;4851483;29;20670;-59
2022/06/10 11:39:56;;;;;;;2.20;2.00;;;;;;;23.03;48.40;97670.97;4827854;29;20297;-59
2022/06/10 11:42:35;;;;;;;2.17;1.97;;;;;;;23.34;52.09;97671.31;4806774;29;21032;-55
2022/06/10 11:45:09;;;;;;;1.93;1.83;;;;;;;23.23;50.26;97672.25;4827947;29;20757;-56
2022/06/10 11:47:42;;;;;;;2.10;2.00;;;;;;;23.35;46.67;97672.13;4849872;29;20221;-56
2022/06/10 11:50:19;;;;;;;2.17;2.07;;;;;;;23.93;49.65;97669.66;4845974;29;20269;-57
2022/06/10 11:52:51;;;;;;;2.90;1.60;;;;;;;24.75;46.41;97668.56;4854426;29;20244;-58
2022/06/10 11:55:24;;;;;;;2.63;1.47;;;;;;;25.24;45.23;97655.72;4850100;29;20214;-58
2022/06/10 12:00:45;;;;;;;1.63;1.50;;;;;;;25.00;41.84;97656.19;4810882;29;20261;-53
2022/06/10 12:03:18;;;;;;;2.30;1.60;;;;;;;24.79;44.65;97649.88;4853266;29;20241;-53
2022/06/10 12:05:53;;;;;;;2.67;1.87;;;;;;;24.12;44.86;97647.63;4857182;29;20233;-57
2022/06/10 12:08:39;;;;;;;4.40;2.20;;;;;;;23.95;46.28;97656.69;4838200;29;20315;-57